Time;durP1;ratioP1;P1;durP2;ratioP2;P2;SDS_P1;SDS_P2;PMS_P1;PMS_P2;Temp;Humidity;BMP_temperature;BMP_pressure;BME280_temperature;BME280_humidity;BME280_pressure;Samples;Min_cycle;Max_cycle;Signal;HPM_P1;HPM_P2
2023/01/10 00:00:12;;;;;;;14.80;11.40;;;;;;;;;;5090131;28;20677;-53
2023/01/10 00:02:38;;;;;;;17.53;12.03;;;;;;;;;;5090488;28;20191;-51
2023/01/10 00:05:04;;;;;;;15.63;11.83;;;;;;;;;;5089623;28;20249;-51
2023/01/10 00:07:30;;;;;;;17.13;11.93;;;;;;;;;;5090193;28;20195;-52
2023/01/10 00:09:56;;;;;;;14.53;10.93;;;;;;;;;;5090084;28;20199;-53
2023/01/10 00:15:09;;;;;;;14.93;11.27;;;;;;;;;;5090077;28;20201;-52
2023/01/10 00:17:35;;;;;;;26.43;12.63;;;;;;;;;;5089655;28;20207;-51
2023/01/10 00:20:01;;;;;;;16.70;12.70;;;;;;;;;;5090270;28;20217;-52
2023/01/10 00:22:27;;;;;;;19.07;12.63;;;;;;;;;;5089832;28;20603;-53
2023/01/10 00:24:53;;;;;;;16.03;11.40;;;;;;;;;;5089975;28;20202;-52
2023/01/10 00:27:21;;;;;;;19.30;12.43;;;;;;;;;;5089861;28;20252;-52
2023/01/10 00:29:48;;;;;;;18.00;11.70;;;;;;;;;;5089715;28;20217;-53
2023/01/10 00:32:15;;;;;;;19.40;12.37;;;;;;;;;;5089823;28;20231;-52
2023/01/10 00:34:41;;;;;;;23.00;12.83;;;;;;;;;;5089904;28;20207;-52
2023/01/10 00:37:07;;;;;;;15.63;12.00;;;;;;;;;;5089780;28;20206;-52
2023/01/10 00:39:33;;;;;;;15.27;11.37;;;;;;;;;;5089731;28;20195;-53
2023/01/10 00:44:45;;;;;;;20.20;12.07;;;;;;;;;;5089821;28;20205;-53
2023/01/10 00:47:11;;;;;;;17.20;12.53;;;;;;;;;;5089738;28;20199;-51
2023/01/10 00:49:39;;;;;;;14.77;11.30;;;;;;;;;;5087987;28;20195;-52
2023/01/10 00:52:05;;;;;;;18.90;13.13;;;;;;;;;;5087522;28;20228;-53
2023/01/10 00:54:31;;;;;;;16.53;12.60;;;;;;;;;;5089424;28;20281;-52
2023/01/10 00:56:57;;;;;;;14.67;12.47;;;;;;;;;;5089566;28;20299;-53
2023/01/10 00:59:23;;;;;;;19.17;11.87;;;;;;;;;;5089327;28;20206;-53
2023/01/10 01:01:49;;;;;;;18.63;13.37;;;;;;;;;;5089537;28;20197;-53
2023/01/10 01:04:16;;;;;;;17.70;12.40;;;;;;;;;;5089446;28;20215;-51
2023/01/10 01:06:45;;;;;;;18.63;12.30;;;;;;;;;;5089267;28;20199;-53
2023/01/10 01:09:11;;;;;;;16.00;11.07;;;;;;;;;;5092361;28;20655;-53
2023/01/10 01:11:37;;;;;;;17.63;11.97;;;;;;;;;;5093207;28;20250;-53
2023/01/10 01:14:03;;;;;;;16.77;12.43;;;;;;;;;;5092819;28;20206;-52
2023/01/10 01:16:29;;;;;;;20.13;12.43;;;;;;;;;;5092927;28;20266;-51
2023/01/10 01:18:55;;;;;;;15.23;10.50;;;;;;;;;;5092797;28;20207;-50
2023/01/10 01:21:21;;;;;;;12.90;10.50;;;;;;;;;;5092821;28;20230;-50
2023/01/10 01:23:49;;;;;;;13.57;11.17;;;;;;;;;;5093009;28;20227;-50
2023/01/10 01:26:15;;;;;;;12.73;10.87;;;;;;;;;;5092671;28;20672;-50
2023/01/10 01:28:41;;;;;;;13.10;9.67;;;;;;;;;;5093048;28;20289;-50
2023/01/10 01:31:08;;;;;;;16.90;11.03;;;;;;;;;;5092350;28;20194;-49
2023/01/10 01:33:34;;;;;;;13.77;11.33;;;;;;;;;;5092467;28;20515;-48
2023/01/10 01:36:00;;;;;;;13.50;11.07;;;;;;;;;;5092517;28;20643;-49
2023/01/10 01:38:26;;;;;;;14.57;11.07;;;;;;;;;;5092242;28;20202;-49
2023/01/10 01:40:53;;;;;;;15.57;11.17;;;;;;;;;;5092573;28;20226;-49
2023/01/10 01:43:22;;;;;;;14.60;11.00;;;;;;;;;;5092510;28;20218;-50
2023/01/10 01:45:48;;;;;;;12.40;9.87;;;;;;;;;;5092099;28;20544;-49
2023/01/10 01:48:17;;;;;;;13.80;10.27;;;;;;;;;;5092268;28;20213;-50
2023/01/10 01:50:45;;;;;;;16.13;10.03;;;;;;;;;;5092432;28;20252;-49
2023/01/10 01:53:12;;;;;;;12.10;10.30;;;;;;;;;;5091969;28;20689;-49
2023/01/10 01:55:39;;;;;;;15.13;10.57;;;;;;;;;;5092174;28;20199;-49
2023/01/10 01:58:09;;;;;;;14.03;9.70;;;;;;;;;;5092382;28;20199;-50
2023/01/10 02:00:35;;;;;;;13.33;9.70;;;;;;;;;;5091837;28;20201;-49
2023/01/10 02:03:01;;;;;;;13.53;10.33;;;;;;;;;;5091912;28;20285;-50
2023/01/10 02:05:28;;;;;;;13.57;9.73;;;;;;;;;;5091839;28;20669;-49
2023/01/10 02:07:55;;;;;;;14.33;10.00;;;;;;;;;;5091740;28;20679;-50
2023/01/10 02:10:24;;;;;;;11.70;9.20;;;;;;;;;;5091903;28;20195;-50
2023/01/10 02:12:51;;;;;;;12.47;8.90;;;;;;;;;;5091934;28;20234;-50
2023/01/10 02:15:19;;;;;;;9.67;8.67;;;;;;;;;;5091724;28;20207;-54
2023/01/10 02:17:47;;;;;;;12.47;8.47;;;;;;;;;;5091768;28;20194;-50
2023/01/10 02:20:13;;;;;;;10.00;8.07;;;;;;;;;;5090829;28;20202;-49
2023/01/10 02:22:57;;;;;;;14.07;7.87;;;;;;;;;;5091967;28;20214;-50
2023/01/10 02:25:39;;;;;;;10.63;8.13;;;;;;;;;;5092177;28;20198;-51
2023/01/10 02:28:16;;;;;;;10.40;7.40;;;;;;;;;;5091860;28;20194;-51
2023/01/10 02:30:54;;;;;;;10.10;6.97;;;;;;;;;;5092186;28;20200;-50
2023/01/10 02:33:25;;;;;;;12.70;7.33;;;;;;;;;;5091350;28;20678;-50
2023/01/10 02:35:57;;;;;;;10.03;6.80;;;;;;;;;;5091328;28;20238;-50
2023/01/10 02:38:31;;;;;;;17.97;9.23;;;;;;;;;;5091336;28;20230;-50
2023/01/10 02:41:01;;;;;;;9.47;6.83;;;;;;;;;;5091414;28;20565;-50
2023/01/10 02:43:30;;;;;;;9.07;6.60;;;;;;;;;;5091316;28;20286;-50
2023/01/10 02:45:58;;;;;;;11.10;6.77;;;;;;;;;;5091198;28;20194;-50
2023/01/10 02:48:25;;;;;;;10.63;6.73;;;;;;;;;;5091295;28;20340;-50
2023/01/10 02:50:53;;;;;;;12.60;6.77;;;;;;;;;;5091208;28;20214;-51
2023/01/10 02:53:22;;;;;;;12.77;7.97;;;;;;;;;;5090918;28;20249;-51
2023/01/10 02:56:12;;;;;;;7.20;6.20;;;;;;;;;;5090981;28;20194;-50
2023/01/10 02:58:44;;;;;;;11.13;6.90;;;;;;;;;;5090732;28;20716;-51
2023/01/10 03:01:15;;;;;;;7.80;5.73;;;;;;;;;;5090744;28;20244;-51
2023/01/10 03:03:46;;;;;;;13.03;6.40;;;;;;;;;;5090846;28;20245;-51
2023/01/10 03:06:18;;;;;;;9.67;5.50;;;;;;;;;;5090739;28;20282;-51
2023/01/10 03:08:48;;;;;;;8.97;5.37;;;;;;;;;;5091070;28;20621;-51
2023/01/10 03:11:14;;;;;;;8.80;5.00;;;;;;;;;;5090672;28;20653;-49
2023/01/10 03:13:42;;;;;;;7.03;4.70;;;;;;;;;;5090774;28;20245;-49
2023/01/10 03:16:11;;;;;;;10.83;5.07;;;;;;;;;;5090638;28;20225;-49
2023/01/10 03:18:40;;;;;;;6.80;4.20;;;;;;;;;;5090578;28;20187;-49
2023/01/10 03:21:09;;;;;;;7.97;4.10;;;;;;;;;;5090648;28;20199;-48
2023/01/10 03:23:35;;;;;;;7.57;5.00;;;;;;;;;;5090170;28;20650;-50
2023/01/10 03:26:02;;;;;;;9.47;4.80;;;;;;;;;;5090378;28;20198;-49
2023/01/10 03:28:29;;;;;;;7.57;4.40;;;;;;;;;;5090436;28;20213;-50
2023/01/10 03:30:58;;;;;;;8.73;4.30;;;;;;;;;;5090181;28;20256;-50
2023/01/10 03:33:27;;;;;;;8.83;4.93;;;;;;;;;;5090242;28;20488;-50
2023/01/10 03:35:59;;;;;;;7.33;4.27;;;;;;;;;;5090506;28;20235;-51
2023/01/10 03:38:31;;;;;;;9.50;4.87;;;;;;;;;;5090432;28;20203;-50
2023/01/10 03:40:59;;;;;;;11.07;4.13;;;;;;;;;;5090411;28;20203;-50
2023/01/10 03:46:17;;;;;;;11.30;4.73;;;;;;;;;;5090120;28;20256;-50
2023/01/10 03:48:46;;;;;;;9.00;4.47;;;;;;;;;;5090114;28;20282;-50
2023/01/10 03:51:13;;;;;;;9.20;5.13;;;;;;;;;;5090230;28;20198;-49
2023/01/10 03:53:40;;;;;;;8.50;4.23;;;;;;;;;;5089965;28;20644;-50
2023/01/10 03:56:07;;;;;;;10.63;4.73;;;;;;;;;;5090168;28;20209;-50
2023/01/10 03:58:33;;;;;;;10.03;4.57;;;;;;;;;;5089996;28;20294;-50
2023/01/10 04:00:59;;;;;;;10.50;5.37;;;;;;;;;;5089976;28;20633;-50
2023/01/10 04:03:25;;;;;;;10.93;4.97;;;;;;;;;;5089884;28;20282;-50
2023/01/10 04:05:51;;;;;;;12.13;4.90;;;;;;;;;;5089974;28;20602;-49
2023/01/10 04:08:17;;;;;;;15.77;5.27;;;;;;;;;;5089609;28;20607;-50
2023/01/10 04:10:44;;;;;;;10.97;4.90;;;;;;;;;;5090065;28;20204;-50
2023/01/10 04:13:10;;;;;;;13.30;5.47;;;;;;;;;;5089753;28;20222;-50
2023/01/10 04:15:36;;;;;;;15.53;6.50;;;;;;;;;;5089883;28;20202;-50
2023/01/10 04:18:02;;;;;;;12.20;4.90;;;;;;;;;;5089938;28;20191;-50
2023/01/10 04:20:28;;;;;;;10.80;4.67;;;;;;;;;;5089507;28;20210;-49
2023/01/10 04:22:54;;;;;;;13.03;4.83;;;;;;;;;;5089707;28;20183;-50
2023/01/10 04:25:20;;;;;;;8.67;5.03;;;;;;;;;;5089626;28;20207;-50
2023/01/10 04:27:49;;;;;;;11.40;4.83;;;;;;;;;;5089696;28;20293;-49
2023/01/10 04:30:16;;;;;;;10.83;4.30;;;;;;;;;;5089713;28;20191;-50
2023/01/10 04:32:42;;;;;;;11.10;4.30;;;;;;;;;;5089371;28;20226;-50
2023/01/10 04:35:08;;;;;;;10.10;4.63;;;;;;;;;;5089498;28;20576;-49
2023/01/10 04:37:34;;;;;;;13.70;4.73;;;;;;;;;;5089517;28;20206;-50
2023/01/10 04:40:00;;;;;;;11.40;5.20;;;;;;;;;;5089608;28;20198;-49
2023/01/10 04:42:26;;;;;;;9.77;4.80;;;;;;;;;;5089769;28;20535;-50
2023/01/10 04:44:53;;;;;;;10.83;4.67;;;;;;;;;;5093297;28;20677;-50
2023/01/10 04:47:19;;;;;;;16.30;5.10;;;;;;;;;;5093687;28;20546;-50
2023/01/10 04:49:45;;;;;;;11.17;4.83;;;;;;;;;;5093455;28;20983;-50
2023/01/10 04:52:11;;;;;;;10.80;4.03;;;;;;;;;;5093251;28;20592;-50
2023/01/10 04:54:37;;;;;;;9.93;4.93;;;;;;;;;;5093569;28;20202;-50
2023/01/10 04:57:05;;;;;;;12.33;4.87;;;;;;;;;;5093359;28;20203;-50
2023/01/10 04:59:31;;;;;;;15.10;5.37;;;;;;;;;;5093297;28;20564;-50
2023/01/10 05:01:58;;;;;;;14.57;4.67;;;;;;;;;;5093283;28;20525;-50
2023/01/10 05:04:25;;;;;;;12.97;4.03;;;;;;;;;;5093064;28;20432;-50
2023/01/10 05:06:50;;;;;;;9.47;4.10;;;;;;;;;;5093125;28;20498;-50
2023/01/10 05:09:17;;;;;;;15.00;4.67;;;;;;;;;;5093036;28;20429;-50
2023/01/10 05:11:42;;;;;;;13.43;4.70;;;;;;;;;;5092811;28;20226;-50
2023/01/10 05:14:08;;;;;;;10.40;3.83;;;;;;;;;;5093038;28;20436;-50
2023/01/10 05:16:35;;;;;;;13.77;4.13;;;;;;;;;;5092795;28;20474;-50
2023/01/10 05:19:02;;;;;;;10.97;4.00;;;;;;;;;;5093164;28;20210;-50
2023/01/10 05:21:28;;;;;;;9.70;4.13;;;;;;;;;;5092628;28;20205;-50
2023/01/10 05:23:54;;;;;;;7.20;3.77;;;;;;;;;;5092752;28;20810;-50
2023/01/10 05:26:21;;;;;;;14.37;4.13;;;;;;;;;;5092858;28;20260;-50
2023/01/10 05:28:47;;;;;;;13.17;4.67;;;;;;;;;;5092805;28;20214;-50
2023/01/10 05:31:14;;;;;;;11.07;4.30;;;;;;;;;;5092789;28;20449;-50
2023/01/10 05:33:43;;;;;;;11.93;4.10;;;;;;;;;;5092616;28;20429;-50
2023/01/10 05:36:10;;;;;;;14.27;4.60;;;;;;;;;;5092323;28;21002;-50
2023/01/10 05:38:36;;;;;;;13.67;4.50;;;;;;;;;;5092528;28;20445;-51
2023/01/10 05:41:02;;;;;;;12.30;4.20;;;;;;;;;;5092509;28;20285;-51
2023/01/10 05:43:28;;;;;;;15.37;4.97;;;;;;;;;;5092252;28;20528;-51
2023/01/10 05:45:54;;;;;;;15.73;4.57;;;;;;;;;;5092255;28;20236;-51
2023/01/10 05:48:20;;;;;;;14.83;4.83;;;;;;;;;;5092119;28;20274;-51
2023/01/10 05:50:48;;;;;;;15.73;4.77;;;;;;;;;;5092346;28;21042;-50
2023/01/10 05:53:15;;;;;;;9.83;4.57;;;;;;;;;;5092255;28;20227;-51
2023/01/10 05:55:41;;;;;;;14.10;4.80;;;;;;;;;;5092049;28;20460;-49
2023/01/10 05:58:10;;;;;;;9.17;4.27;;;;;;;;;;5092400;28;20473;-51
2023/01/10 06:00:36;;;;;;;17.73;4.90;;;;;;;;;;5092214;28;20230;-50
2023/01/10 06:03:02;;;;;;;12.37;4.40;;;;;;;;;;5092082;28;20226;-51
2023/01/10 06:05:27;;;;;;;12.80;5.43;;;;;;;;;;5092087;28;20245;-51
2023/01/10 06:07:53;;;;;;;13.33;5.40;;;;;;;;;;5091745;28;20449;-50
2023/01/10 06:10:21;;;;;;;13.50;5.63;;;;;;;;;;5091919;28;20194;-51
2023/01/10 06:12:48;;;;;;;13.13;5.07;;;;;;;;;;5091987;28;20211;-51
2023/01/10 06:15:15;;;;;;;11.13;4.53;;;;;;;;;;5091769;28;20452;-50
2023/01/10 06:17:43;;;;;;;15.27;4.73;;;;;;;;;;5091351;28;20449;-50
2023/01/10 06:20:09;;;;;;;11.10;4.77;;;;;;;;;;5091665;28;20440;-50
2023/01/10 06:22:35;;;;;;;16.77;5.40;;;;;;;;;;5091366;28;20440;-49
2023/01/10 06:25:01;;;;;;;15.50;5.27;;;;;;;;;;5092062;28;20437;-48
2023/01/10 06:27:28;;;;;;;12.53;7.17;;;;;;;;;;5091371;28;20187;-48
2023/01/10 06:29:55;;;;;;;10.27;5.43;;;;;;;;;;5091563;28;20222;-48
2023/01/10 06:32:21;;;;;;;14.07;6.00;;;;;;;;;;5091110;28;20491;-48
2023/01/10 06:34:47;;;;;;;12.90;5.93;;;;;;;;;;5091007;28;20970;-49
2023/01/10 06:37:13;;;;;;;15.67;6.30;;;;;;;;;;5091187;28;20282;-47
2023/01/10 06:39:39;;;;;;;16.63;5.43;;;;;;;;;;5091140;28;20210;-49
2023/01/10 06:42:05;;;;;;;13.43;5.90;;;;;;;;;;5091453;28;20755;-50
2023/01/10 06:44:32;;;;;;;13.77;6.20;;;;;;;;;;5091158;28;20438;-48
2023/01/10 06:46:58;;;;;;;13.47;7.53;;;;;;;;;;5091093;28;20226;-49
2023/01/10 06:49:24;;;;;;;13.67;6.53;;;;;;;;;;5090993;28;20449;-49
2023/01/10 06:51:50;;;;;;;18.83;7.23;;;;;;;;;;5090674;28;20308;-49
2023/01/10 06:54:16;;;;;;;20.57;10.00;;;;;;;;;;5091088;28;20203;-49
2023/01/10 06:56:42;;;;;;;13.83;8.00;;;;;;;;;;5091027;28;20560;-49
2023/01/10 06:59:08;;;;;;;14.63;7.63;;;;;;;;;;5091039;28;20203;-49
2023/01/10 07:01:36;;;;;;;14.97;8.13;;;;;;;;;;5090836;28;20220;-49
2023/01/10 07:04:01;;;;;;;17.40;6.93;;;;;;;;;;5090863;28;20459;-49
2023/01/10 07:06:27;;;;;;;19.70;7.80;;;;;;;;;;5090042;28;20919;-50
2023/01/10 07:08:54;;;;;;;15.30;6.80;;;;;;;;;;5091249;28;20195;-49
2023/01/10 07:11:20;;;;;;;15.13;6.60;;;;;;;;;;5090778;28;20697;-49
2023/01/10 07:13:46;;;;;;;21.63;7.23;;;;;;;;;;5090743;28;20445;-49
2023/01/10 07:16:13;;;;;;;15.47;7.70;;;;;;;;;;5090484;28;20194;-49
2023/01/10 07:18:41;;;;;;;15.73;7.20;;;;;;;;;;5090307;28;20201;-49
2023/01/10 07:21:07;;;;;;;11.93;6.97;;;;;;;;;;5090468;28;20441;-48
2023/01/10 07:23:34;;;;;;;20.43;7.40;;;;;;;;;;5090504;28;20456;-51
2023/01/10 07:26:03;;;;;;;16.60;8.67;;;;;;;;;;5090510;28;20437;-49
2023/01/10 07:28:30;;;;;;;11.50;7.37;;;;;;;;;;5090441;28;20448;-50
2023/01/10 07:30:59;;;;;;;13.97;7.27;;;;;;;;;;5090315;28;20437;-50
2023/01/10 07:33:25;;;;;;;14.30;7.50;;;;;;;;;;5090003;28;20568;-50
2023/01/10 07:35:52;;;;;;;18.40;7.43;;;;;;;;;;5090245;28;21013;-50
2023/01/10 07:38:18;;;;;;;17.80;7.97;;;;;;;;;;5090140;28;20203;-48
2023/01/10 07:40:44;;;;;;;16.33;7.83;;;;;;;;;;5090334;28;20491;-48
2023/01/10 07:43:10;;;;;;;16.23;7.33;;;;;;;;;;5090174;28;20749;-49
2023/01/10 07:45:36;;;;;;;13.53;8.17;;;;;;;;;;5089942;28;20391;-48
2023/01/10 07:48:03;;;;;;;17.37;8.23;;;;;;;;;;5090067;28;20658;-49
2023/01/10 07:50:30;;;;;;;15.67;7.83;;;;;;;;;;5089851;28;20437;-49
2023/01/10 07:52:58;;;;;;;15.77;7.10;;;;;;;;;;5089988;28;20472;-48
2023/01/10 07:55:24;;;;;;;16.23;7.33;;;;;;;;;;5090211;28;20433;-49
2023/01/10 07:57:51;;;;;;;17.50;7.40;;;;;;;;;;5089935;28;20453;-49
2023/01/10 08:00:17;;;;;;;11.77;7.13;;;;;;;;;;5089912;28;20992;-50
2023/01/10 08:02:43;;;;;;;17.20;7.80;;;;;;;;;;5089916;28;20444;-51
2023/01/10 08:05:09;;;;;;;11.47;7.50;;;;;;;;;;5089930;28;20421;-48
2023/01/10 08:07:35;;;;;;;15.37;7.63;;;;;;;;;;5089859;28;20273;-48
2023/01/10 08:10:02;;;;;;;16.97;6.87;;;;;;;;;;5089839;28;20508;-49
2023/01/10 08:12:28;;;;;;;17.23;7.60;;;;;;;;;;5089608;28;20226;-47
2023/01/10 08:14:54;;;;;;;16.57;7.43;;;;;;;;;;5089810;28;20436;-48
2023/01/10 08:17:21;;;;;;;14.20;7.60;;;;;;;;;;5089818;28;20211;-49
2023/01/10 08:19:47;;;;;;;9.67;6.37;;;;;;;;;;5094206;28;20268;-49
2023/01/10 08:22:13;;;;;;;17.50;7.43;;;;;;;;;;5093892;28;20995;-48
2023/01/10 08:24:39;;;;;;;12.73;7.17;;;;;;;;;;5093920;28;20439;-48
2023/01/10 08:27:07;;;;;;;18.73;8.17;;;;;;;;;;5093984;28;20562;-49
2023/01/10 08:29:33;;;;;;;16.03;7.27;;;;;;;;;;5093575;28;20202;-48
2023/01/10 08:31:59;;;;;;;17.73;6.87;;;;;;;;;;5093983;28;20475;-48
2023/01/10 08:34:25;;;;;;;15.87;9.07;;;;;;;;;;5093524;28;20210;-48
2023/01/10 08:36:51;;;;;;;14.87;7.20;;;;;;;;;;5093533;28;20234;-49
2023/01/10 08:39:17;;;;;;;17.47;7.70;;;;;;;;;;5093600;28;20333;-48
2023/01/10 08:41:43;;;;;;;13.90;7.47;;;;;;;;;;5093446;28;20673;-49
2023/01/10 08:44:12;;;;;;;12.60;6.50;;;;;;;;;;5093837;28;20429;-49
2023/01/10 08:46:38;;;;;;;14.53;7.20;;;;;;;;;;5093517;28;20206;-49
2023/01/10 08:49:04;;;;;;;17.30;6.93;;;;;;;;;;5093518;28;20887;-49
2023/01/10 08:51:30;;;;;;;17.77;7.60;;;;;;;;;;5093341;28;20441;-49
2023/01/10 08:53:56;;;;;;;14.53;7.10;;;;;;;;;;5093246;28;20494;-49
2023/01/10 08:56:22;;;;;;;15.43;6.93;;;;;;;;;;5093513;28;20194;-52
2023/01/10 08:58:48;;;;;;;8.77;6.27;;;;;;;;;;5093575;28;20571;-50
2023/01/10 09:01:15;;;;;;;14.40;7.40;;;;;;;;;;5093327;28;20191;-52
2023/01/10 09:03:41;;;;;;;12.10;6.70;;;;;;;;;;5093286;28;20531;-54
2023/01/10 09:06:08;;;;;;;16.90;6.30;;;;;;;;;;5093113;28;20218;-53
2023/01/10 09:08:34;;;;;;;13.63;6.40;;;;;;;;;;5093024;28;20229;-55
2023/01/10 09:11:00;;;;;;;15.90;5.93;;;;;;;;;;5093407;28;20257;-54
2023/01/10 09:13:27;;;;;;;10.70;4.83;;;;;;;;;;5083217;28;20309;-54
2023/01/10 09:15:53;;;;;;;11.40;5.43;;;;;;;;;;5093453;28;20290;-53
2023/01/10 09:18:21;;;;;;;14.00;5.77;;;;;;;;;;5090798;28;20721;-58
2023/01/10 09:20:47;;;;;;;13.67;7.00;;;;;;;;;;5091426;28;20216;-57
2023/01/10 09:23:18;;;;;;;13.43;7.07;;;;;;;;;;5092847;28;20191;-55
2023/01/10 09:25:44;;;;;;;14.10;7.07;;;;;;;;;;5092952;28;20210;-53
2023/01/10 09:28:11;;;;;;;14.20;6.83;;;;;;;;;;5092325;28;20195;-53
2023/01/10 09:30:37;;;;;;;14.93;7.57;;;;;;;;;;5092604;28;20294;-51
2023/01/10 09:33:03;;;;;;;20.00;7.53;;;;;;;;;;5092378;28;20230;-52
2023/01/10 09:35:31;;;;;;;16.50;8.17;;;;;;;;;;5092156;28;20242;-53
2023/01/10 09:37:57;;;;;;;14.17;8.13;;;;;;;;;;5092755;28;20203;-52
2023/01/10 09:40:27;;;;;;;16.00;7.63;;;;;;;;;;5092518;28;20194;-52
2023/01/10 09:42:59;;;;;;;16.23;7.87;;;;;;;;;;5092653;28;20198;-52
2023/01/10 09:45:28;;;;;;;20.37;8.20;;;;;;;;;;5092641;28;20203;-52
2023/01/10 09:47:56;;;;;;;13.53;7.67;;;;;;;;;;5092438;28;20564;-52
2023/01/10 09:50:26;;;;;;;16.40;8.00;;;;;;;;;;5092485;28;20206;-52
2023/01/10 09:52:55;;;;;;;14.53;7.73;;;;;;;;;;5092306;28;20233;-53
2023/01/10 09:55:24;;;;;;;14.90;8.43;;;;;;;;;;5092244;28;20214;-52
2023/01/10 09:57:52;;;;;;;14.83;8.17;;;;;;;;;;5092703;28;20336;-52
2023/01/10 10:00:20;;;;;;;15.30;8.00;;;;;;;;;;5092326;28;20201;-53
2023/01/10 10:02:49;;;;;;;18.07;7.90;;;;;;;;;;5092423;28;20183;-52
2023/01/10 10:05:18;;;;;;;15.20;8.30;;;;;;;;;;5092081;28;20234;-52
2023/01/10 10:07:44;;;;;;;17.03;8.30;;;;;;;;;;5092224;28;20211;-51
2023/01/10 10:10:16;;;;;;;13.10;8.27;;;;;;;;;;5091986;28;20191;-53
2023/01/10 10:12:43;;;;;;;17.10;8.23;;;;;;;;;;5092034;28;20741;-53
2023/01/10 10:15:18;;;;;;;12.73;7.43;;;;;;;;;;5091930;28;20674;-53
2023/01/10 10:17:47;;;;;;;14.33;7.33;;;;;;;;;;5091766;28;20694;-53
2023/01/10 10:20:21;;;;;;;14.40;6.77;;;;;;;;;;5091946;28;20199;-54
2023/01/10 10:22:52;;;;;;;14.93;7.63;;;;;;;;;;5091892;28;20221;-53
2023/01/10 10:25:25;;;;;;;13.03;6.87;;;;;;;;;;5091997;28;20199;-53
2023/01/10 10:27:58;;;;;;;17.37;7.53;;;;;;;;;;5091796;28;20206;-52
2023/01/10 10:30:29;;;;;;;13.63;6.97;;;;;;;;;;5091871;28;20198;-52
2023/01/10 10:33:06;;;;;;;17.77;7.57;;;;;;;;;;5091558;28;20227;-52
2023/01/10 10:35:34;;;;;;;15.07;7.33;;;;;;;;;;5091258;28;20571;-52
2023/01/10 10:38:04;;;;;;;15.60;7.53;;;;;;;;;;5091608;28;20248;-51
2023/01/10 10:40:32;;;;;;;12.30;6.80;;;;;;;;;;5090567;28;20202;-52
2023/01/10 10:43:04;;;;;;;15.93;7.60;;;;;;;;;;5091421;28;20685;-52
2023/01/10 10:45:38;;;;;;;18.10;7.17;;;;;;;;;;5091272;28;20233;-52
2023/01/10 10:48:10;;;;;;;12.93;6.63;;;;;;;;;;5091201;28;20195;-52
2023/01/10 10:50:48;;;;;;;13.63;7.03;;;;;;;;;;5091153;28;20644;-52
2023/01/10 10:53:14;;;;;;;15.73;7.17;;;;;;;;;;5091159;28;20252;-52
2023/01/10 10:55:41;;;;;;;15.37;7.30;;;;;;;;;;5088689;28;20273;-52
2023/01/10 10:58:09;;;;;;;17.07;7.60;;;;;;;;;;5091166;28;20195;-51
2023/01/10 11:00:35;;;;;;;14.40;8.03;;;;;;;;;;5090731;28;20259;-52
2023/01/10 11:03:04;;;;;;;12.60;7.23;;;;;;;;;;5090944;28;20191;-51
2023/01/10 11:05:32;;;;;;;16.53;7.57;;;;;;;;;;5090803;28;20195;-52
2023/01/10 11:08:01;;;;;;;19.60;8.20;;;;;;;;;;5090850;28;20244;-52
2023/01/10 11:10:34;;;;;;;20.77;8.47;;;;;;;;;;5090631;28;20721;-52
2023/01/10 11:13:02;;;;;;;17.63;8.60;;;;;;;;;;5090481;28;20229;-52
2023/01/10 11:15:35;;;;;;;24.67;9.13;;;;;;;;;;5090585;28;20202;-51
2023/01/10 11:18:04;;;;;;;12.93;7.53;;;;;;;;;;5090558;28;20209;-52
2023/01/10 11:20:31;;;;;;;16.20;7.80;;;;;;;;;;5090408;28;20209;-51
2023/01/10 11:22:57;;;;;;;20.90;8.97;;;;;;;;;;5090470;28;20579;-52
2023/01/10 11:25:23;;;;;;;20.27;8.63;;;;;;;;;;5090684;28;20228;-52
2023/01/10 11:27:50;;;;;;;20.50;8.80;;;;;;;;;;5090274;28;20600;-52
2023/01/10 11:30:21;;;;;;;22.40;8.17;;;;;;;;;;5090286;28;20680;-52
2023/01/10 11:32:51;;;;;;;19.50;8.40;;;;;;;;;;5090027;28;20235;-52
2023/01/10 11:35:20;;;;;;;18.93;8.73;;;;;;;;;;5089859;28;20230;-52
2023/01/10 11:37:58;;;;;;;17.93;8.63;;;;;;;;;;5088158;28;20186;-52
2023/01/10 11:40:25;;;;;;;14.50;8.23;;;;;;;;;;5090274;28;20210;-52
2023/01/10 11:42:53;;;;;;;18.73;9.50;;;;;;;;;;5090145;28;20191;-51
2023/01/10 11:45:28;;;;;;;18.20;9.03;;;;;;;;;;5090405;28;20604;-53
2023/01/10 11:47:56;;;;;;;19.07;9.17;;;;;;;;;;5090092;28;20230;-52
2023/01/10 11:50:24;;;;;;;18.37;8.57;;;;;;;;;;5090076;28;20265;-52
2023/01/10 11:52:50;;;;;;;20.37;8.80;;;;;;;;;;5089954;28;20254;-51
2023/01/10 11:55:18;;;;;;;16.27;8.83;;;;;;;;;;5090139;28;20237;-52
2023/01/10 11:57:44;;;;;;;17.17;8.20;;;;;;;;;;5089842;28;20195;-52
2023/01/10 12:00:11;;;;;;;12.47;7.97;;;;;;;;;;5090175;28;20199;-52
2023/01/10 12:02:41;;;;;;;15.13;8.37;;;;;;;;;;5089691;28;20202;-52
2023/01/10 12:05:09;;;;;;;13.97;8.10;;;;;;;;;;5089889;28;20207;-52
2023/01/10 12:07:50;;;;;;;19.57;8.73;;;;;;;;;;5089875;28;20579;-52
2023/01/10 12:10:20;;;;;;;22.07;8.57;;;;;;;;;;5089690;28;20656;-52
2023/01/10 12:12:53;;;;;;;18.83;9.57;;;;;;;;;;5089645;28;20233;-52
2023/01/10 12:15:24;;;;;;;18.43;9.00;;;;;;;;;;5089161;28;20210;-52
2023/01/10 12:17:51;;;;;;;21.10;8.77;;;;;;;;;;5089966;28;20209;-52
2023/01/10 12:20:18;;;;;;;16.43;7.73;;;;;;;;;;5089897;28;20622;-51
2023/01/10 12:22:45;;;;;;;12.00;7.40;;;;;;;;;;5089986;28;20202;-51
2023/01/10 12:25:17;;;;;;;16.50;8.13;;;;;;;;;;5089955;28;20743;-51
2023/01/10 12:27:45;;;;;;;17.07;8.20;;;;;;;;;;5089848;28;20757;-50
2023/01/10 12:30:13;;;;;;;14.73;7.73;;;;;;;;;;5089713;28;20606;-50
2023/01/10 12:32:42;;;;;;;17.30;7.43;;;;;;;;;;5089596;28;20771;-50
2023/01/10 12:35:14;;;;;;;19.80;8.20;;;;;;;;;;5089611;28;20296;-50
2023/01/10 12:37:45;;;;;;;16.37;7.70;;;;;;;;;;5089459;28;20260;-50
2023/01/10 12:40:13;;;;;;;17.20;7.93;;;;;;;;;;5089790;28;20244;-50
2023/01/10 12:45:32;;;;;;;17.87;7.67;;;;;;;;;;5087528;28;20244;-51
2023/01/10 12:47:59;;;;;;;14.33;7.27;;;;;;;;;;5088988;28;20199;-50
2023/01/10 12:50:31;;;;;;;16.73;8.47;;;;;;;;;;5088964;28;20210;-50
2023/01/10 12:52:59;;;;;;;20.17;8.07;;;;;;;;;;5089395;28;20267;-50
2023/01/10 12:55:27;;;;;;;19.07;7.80;;;;;;;;;;5089508;28;20234;-49
2023/01/10 12:57:54;;;;;;;19.27;8.00;;;;;;;;;;5089231;28;20252;-50
2023/01/10 13:00:23;;;;;;;18.33;7.60;;;;;;;;;;5089248;28;20230;-50
2023/01/10 13:02:50;;;;;;;18.17;7.77;;;;;;;;;;5089235;28;20195;-50
2023/01/10 13:05:18;;;;;;;16.00;7.67;;;;;;;;;;5092263;28;20248;-49
2023/01/10 13:07:46;;;;;;;20.13;9.00;;;;;;;;;;5093031;28;20198;-51
2023/01/10 13:10:14;;;;;;;17.50;8.23;;;;;;;;;;5093315;28;20252;-50
2023/01/10 13:12:44;;;;;;;19.20;7.97;;;;;;;;;;5092881;28;20219;-50
2023/01/10 13:15:13;;;;;;;17.23;8.73;;;;;;;;;;5092924;28;20198;-50
2023/01/10 13:17:42;;;;;;;15.50;8.13;;;;;;;;;;5092668;28;20203;-51
2023/01/10 13:20:32;;;;;;;14.57;7.80;;;;;;;;;;5093052;28;20324;-50
2023/01/10 13:23:00;;;;;;;21.93;8.73;;;;;;;;;;5077236;28;20256;-50
2023/01/10 13:25:27;;;;;;;18.50;7.93;;;;;;;;;;5092838;28;20613;-49
2023/01/10 13:27:55;;;;;;;16.30;7.90;;;;;;;;;;5092676;28;20198;-50
2023/01/10 13:30:25;;;;;;;18.40;9.20;;;;;;;;;;5092666;28;20195;-50
2023/01/10 13:32:56;;;;;;;16.00;8.63;;;;;;;;;;5092537;28;20235;-50
2023/01/10 13:35:24;;;;;;;15.20;7.70;;;;;;;;;;5092391;28;20254;-49
2023/01/10 13:37:52;;;;;;;22.70;8.80;;;;;;;;;;5092169;28;20203;-50
2023/01/10 13:40:21;;;;;;;20.33;8.20;;;;;;;;;;5092489;28;20621;-50
2023/01/10 13:43:19;;;;;;;19.80;8.40;;;;;;;;;;5092449;28;20286;-51
2023/01/10 13:45:45;;;;;;;24.43;10.13;;;;;;;;;;5091898;28;20645;-49
2023/01/10 13:48:25;;;;;;;20.20;9.80;;;;;;;;;;5092318;28;20195;-49
2023/01/10 13:51:05;;;;;;;19.57;8.83;;;;;;;;;;5091962;28;20213;-50
2023/01/10 13:53:53;;;;;;;30.00;10.37;;;;;;;;;;5089864;28;20223;-50
2023/01/10 13:56:37;;;;;;;27.30;10.60;;;;;;;;;;5092337;28;20235;-49
2023/01/10 14:04:35;;;;;;;20.97;9.83;;;;;;;;;;5091925;28;20305;-50
2023/01/10 14:07:02;;;;;;;22.20;9.73;;;;;;;;;;5092036;28;20448;-50
2023/01/10 14:09:31;;;;;;;19.60;8.93;;;;;;;;;;5091957;28;20556;-50
2023/01/10 14:11:59;;;;;;;20.60;8.77;;;;;;;;;;5092055;28;20206;-50
2023/01/10 14:14:27;;;;;;;21.70;8.20;;;;;;;;;;5091526;28;20433;-50
2023/01/10 14:16:54;;;;;;;15.37;8.10;;;;;;;;;;5090483;28;20441;-50
2023/01/10 14:19:23;;;;;;;20.37;7.90;;;;;;;;;;5091529;28;20433;-50
2023/01/10 14:21:52;;;;;;;18.50;7.40;;;;;;;;;;5091543;28;20433;-49
2023/01/10 14:24:23;;;;;;;17.13;7.13;;;;;;;;;;5091711;28;20187;-49
2023/01/10 14:26:49;;;;;;;15.90;6.87;;;;;;;;;;5091356;28;20203;-50
2023/01/10 14:29:17;;;;;;;15.87;6.37;;;;;;;;;;5091825;28;20211;-49
2023/01/10 14:31:45;;;;;;;18.03;6.93;;;;;;;;;;5091353;28;20226;-51
2023/01/10 14:34:14;;;;;;;12.83;6.47;;;;;;;;;;5091250;28;20226;-49
2023/01/10 14:36:44;;;;;;;16.23;6.23;;;;;;;;;;5091208;28;20231;-50
2023/01/10 14:39:14;;;;;;;16.60;6.37;;;;;;;;;;5091974;28;20562;-49
2023/01/10 14:41:42;;;;;;;15.90;6.13;;;;;;;;;;5091518;28;20597;-51
2023/01/10 14:44:13;;;;;;;16.77;5.90;;;;;;;;;;5091290;28;20191;-50
2023/01/10 14:46:43;;;;;;;12.27;5.07;;;;;;;;;;5091060;28;20199;-49
2023/01/10 14:49:19;;;;;;;18.40;5.90;;;;;;;;;;5090842;28;20287;-49